Time;durP1;ratioP1;P1;durP2;ratioP2;P2;SDS_P1;SDS_P2;PMS_P1;PMS_P2;Temp;Humidity;BMP_temperature;BMP_pressure;BME280_temperature;BME280_humidity;BME280_pressure;Samples;Min_cycle;Max_cycle;Signal;HPM_P1;HPM_P2
2023/07/05 00:00:55;;;;;;;1.70;1.60;;;;;;;;;;5065529;28;20210;-76
2023/07/05 00:03:22;;;;;;;1.77;1.60;;;;;;;;;;5065426;28;20221;-78
2023/07/05 00:05:49;;;;;;;1.80;1.70;;;;;;;;;;5072425;28;20191;-77
2023/07/05 00:08:18;;;;;;;2.42;1.85;;;;;;;;;;5068319;28;20217;-74
2023/07/05 00:10:45;;;;;;;2.10;1.80;;;;;;;;;;5070093;28;20205;-74
2023/07/05 00:13:12;;;;;;;3.80;1.70;;;;;;;;;;5074874;28;20206;-75
2023/07/05 00:15:39;;;;;;;2.00;1.67;;;;;;;;;;5074570;28;20215;-76
2023/07/05 00:18:06;;;;;;;2.10;2.00;;;;;;;;;;5071959;28;20202;-76
2023/07/05 00:20:34;;;;;;;1.70;1.60;;;;;;;;;;5072242;28;20206;-77
2023/07/05 00:23:01;;;;;;;3.90;2.33;;;;;;;;;;5074941;28;20222;-77
2023/07/05 00:25:31;;;;;;;1.95;1.50;;;;;;;;;;5069172;28;20213;-78
2023/07/05 00:27:58;;;;;;;1.83;1.70;;;;;;;;;;5072876;28;20198;-78
2023/07/05 00:30:25;;;;;;;2.38;1.70;;;;;;;;;;5073832;28;20217;-77
2023/07/05 00:32:52;;;;;;;1.67;1.58;;;;;;;;;;5069129;28;20194;-77
2023/07/05 00:35:19;;;;;;;1.95;1.73;;;;;;;;;;5074966;28;20325;-76
2023/07/05 00:37:47;;;;;;;2.28;1.90;;;;;;;;;;5070259;28;20226;-77
2023/07/05 00:40:14;;;;;;;3.35;1.70;;;;;;;;;;5070559;28;20209;-76
2023/07/05 00:42:43;;;;;;;3.88;1.48;;;;;;;;;;5072611;28;20218;-76
2023/07/05 00:45:34;;;;;;;1.88;1.75;;;;;;;;;;5072190;28;20202;-76
2023/07/05 00:48:01;;;;;;;1.98;1.60;;;;;;;;;;5070522;28;20202;-76
2023/07/05 00:50:33;;;;;;;2.10;1.60;;;;;;;;;;5072401;28;20202;-75
2023/07/05 00:53:00;;;;;;;2.97;1.83;;;;;;;;;;5073711;28;20204;-73
2023/07/05 00:55:28;;;;;;;2.38;1.70;;;;;;;;;;5067385;28;20274;-76
2023/07/05 00:57:57;;;;;;;1.77;1.40;;;;;;;;;;5071218;28;20210;-75
2023/07/05 01:00:24;;;;;;;2.15;1.50;;;;;;;;;;5073702;28;20206;-75
2023/07/05 01:02:52;;;;;;;2.67;1.80;;;;;;;;;;5071830;28;20237;-75
2023/07/05 01:05:20;;;;;;;1.70;1.60;;;;;;;;;;5073187;28;20198;-75
2023/07/05 01:07:48;;;;;;;2.53;2.10;;;;;;;;;;5072036;28;20199;-76
2023/07/05 01:10:17;;;;;;;1.67;1.58;;;;;;;;;;5075212;28;20444;-76
2023/07/05 01:12:46;;;;;;;2.38;1.50;;;;;;;;;;5072162;28;20206;-76
2023/07/05 01:15:16;;;;;;;1.88;1.58;;;;;;;;;;5076096;28;20216;-78
2023/07/05 01:17:48;;;;;;;4.78;2.28;;;;;;;;;;5073082;28;20203;-74
2023/07/05 01:20:23;;;;;;;2.22;1.80;;;;;;;;;;5073570;28;20194;-76
2023/07/05 01:23:09;;;;;;;3.42;1.55;;;;;;;;;;5073211;28;20312;-74
2023/07/05 01:25:57;;;;;;;1.70;1.60;;;;;;;;;;5073487;28;20210;-75
2023/07/05 01:28:42;;;;;;;2.45;1.67;;;;;;;;;;5070576;28;20202;-76
2023/07/05 01:31:28;;;;;;;3.88;1.60;;;;;;;;;;5069393;28;20194;-76
2023/07/05 01:34:02;;;;;;;2.80;1.63;;;;;;;;;;5073861;28;20205;-75
2023/07/05 01:36:30;;;;;;;2.10;1.60;;;;;;;;;;5073483;28;20203;-76
2023/07/05 01:38:57;;;;;;;2.25;1.85;;;;;;;;;;5079541;28;20213;-77
2023/07/05 01:41:24;;;;;;;2.53;1.67;;;;;;;;;;5071202;28;20207;-77
2023/07/05 01:43:51;;;;;;;1.75;1.60;;;;;;;;;;5080146;28;20218;-76
2023/07/05 01:46:23;;;;;;;1.67;1.50;;;;;;;;;;5074302;28;20205;-79
2023/07/05 01:48:56;;;;;;;3.88;1.90;;;;;;;;;;5077021;28;20198;-80
2023/07/05 01:51:28;;;;;;;3.30;1.77;;;;;;;;;;5074312;28;20210;-79
2023/07/05 01:53:59;;;;;;;3.40;1.80;;;;;;;;;;5079528;28;20202;-79
2023/07/05 01:56:30;;;;;;;2.40;1.77;;;;;;;;;;5078900;28;20235;-75
2023/07/05 01:58:58;;;;;;;3.55;1.80;;;;;;;;;;5075753;28;20199;-78
2023/07/05 02:01:27;;;;;;;1.60;1.42;;;;;;;;;;5079749;28;20210;-76
2023/07/05 02:03:56;;;;;;;1.65;1.55;;;;;;;;;;5077839;28;20213;-72
2023/07/05 02:06:23;;;;;;;2.30;1.77;;;;;;;;;;5071010;28;20236;-78
2023/07/05 02:08:52;;;;;;;2.20;1.73;;;;;;;;;;5075017;28;20198;-74
2023/07/05 02:11:19;;;;;;;3.28;1.63;;;;;;;;;;5075871;28;20206;-74
2023/07/05 02:13:47;;;;;;;3.05;1.80;;;;;;;;;;5079458;28;20195;-74
2023/07/05 02:16:14;;;;;;;3.72;1.70;;;;;;;;;;5076496;28;20203;-76
2023/07/05 02:18:41;;;;;;;5.35;1.83;;;;;;;;;;5074012;28;20340;-77
2023/07/05 02:21:11;;;;;;;1.50;1.45;;;;;;;;;;5079890;28;20209;-74
2023/07/05 02:23:39;;;;;;;3.13;1.70;;;;;;;;;;5072272;28;20254;-76
2023/07/05 02:26:08;;;;;;;1.75;1.42;;;;;;;;;;5074361;28;20199;-76
2023/07/05 02:28:36;;;;;;;1.48;1.38;;;;;;;;;;5074080;28;20203;-76
2023/07/05 02:31:06;;;;;;;1.58;1.20;;;;;;;;;;5075294;28;20211;-78
2023/07/05 02:33:35;;;;;;;1.70;1.60;;;;;;;;;;5072964;28;20255;-75
2023/07/05 02:36:08;;;;;;;1.70;1.60;;;;;;;;;;5073331;28;20214;-73
2023/07/05 02:38:35;;;;;;;1.70;1.60;;;;;;;;;;5069843;28;20296;-75
2023/07/05 02:41:02;;;;;;;2.63;1.60;;;;;;;;;;5069721;28;20217;-72
2023/07/05 02:43:31;;;;;;;1.98;1.88;;;;;;;;;;5074684;28;20215;-74
2023/07/05 02:45:58;;;;;;;1.88;1.77;;;;;;;;;;5072292;28;20248;-74
2023/07/05 02:48:25;;;;;;;2.20;2.00;;;;;;;;;;5072201;28;20202;-74
2023/07/05 02:50:52;;;;;;;2.00;1.88;;;;;;;;;;5073355;28;20210;-72
2023/07/05 02:53:19;;;;;;;2.33;2.10;;;;;;;;;;5078205;28;20206;-74
2023/07/05 02:55:47;;;;;;;2.20;2.00;;;;;;;;;;5078378;28;20203;-71
2023/07/05 02:58:14;;;;;;;3.13;2.10;;;;;;;;;;5072513;28;20195;-72
2023/07/05 03:00:43;;;;;;;4.68;2.35;;;;;;;;;;5074853;28;20202;-74
2023/07/05 03:03:11;;;;;;;2.80;2.60;;;;;;;;;;5074611;28;20232;-72
2023/07/05 03:05:38;;;;;;;3.25;2.80;;;;;;;;;;5072302;28;20232;-76
2023/07/05 03:08:05;;;;;;;3.63;2.55;;;;;;;;;;5074125;28;20201;-73
2023/07/05 03:10:33;;;;;;;2.90;2.60;;;;;;;;;;5075536;28;20198;-74
2023/07/05 03:13:00;;;;;;;3.30;2.97;;;;;;;;;;5074189;28;20202;-72
2023/07/05 03:15:27;;;;;;;3.03;2.78;;;;;;;;;;5074383;28;20249;-72
2023/07/05 03:17:56;;;;;;;2.92;2.72;;;;;;;;;;5073686;28;20205;-74
2023/07/05 03:20:23;;;;;;;2.97;2.72;;;;;;;;;;5075672;28;20209;-74
2023/07/05 03:22:50;;;;;;;3.00;2.72;;;;;;;;;;5067997;28;20250;-72
2023/07/05 03:25:18;;;;;;;6.43;2.95;;;;;;;;;;5074164;28;20205;-72
2023/07/05 03:27:45;;;;;;;2.70;2.50;;;;;;;;;;5075899;28;20195;-74
2023/07/05 03:30:12;;;;;;;2.90;2.70;;;;;;;;;;5076215;28;20206;-72
2023/07/05 03:32:43;;;;;;;3.00;2.80;;;;;;;;;;5071050;28;20207;-72
2023/07/05 03:35:12;;;;;;;4.30;2.88;;;;;;;;;;5075369;28;20340;-72
2023/07/05 03:37:40;;;;;;;3.45;3.15;;;;;;;;;;5084025;28;20238;-73
2023/07/05 03:40:07;;;;;;;3.40;3.10;;;;;;;;;;5074460;28;20207;-73
2023/07/05 03:42:35;;;;;;;2.97;2.78;;;;;;;;;;5073530;28;20205;-75
2023/07/05 03:45:02;;;;;;;4.53;2.80;;;;;;;;;;5079377;28;20205;-74
2023/07/05 03:47:29;;;;;;;3.53;2.60;;;;;;;;;;5076767;28;20209;-72
2023/07/05 03:49:56;;;;;;;3.08;2.88;;;;;;;;;;5081441;28;20327;-73
2023/07/05 03:52:25;;;;;;;3.78;3.28;;;;;;;;;;5075058;28;20221;-72
2023/07/05 03:54:52;;;;;;;3.13;2.83;;;;;;;;;;5076958;28;20199;-73
2023/07/05 03:57:19;;;;;;;3.70;3.40;;;;;;;;;;5077441;28;20203;-73
2023/07/05 03:59:47;;;;;;;4.00;3.17;;;;;;;;;;5076019;28;20203;-74
2023/07/05 04:02:15;;;;;;;4.38;3.72;;;;;;;;;;5076500;28;20210;-75
2023/07/05 04:04:42;;;;;;;4.13;3.72;;;;;;;;;;5074272;28;20223;-75
2023/07/05 04:07:09;;;;;;;4.75;3.30;;;;;;;;;;5075683;28;20199;-74
2023/07/05 04:09:38;;;;;;;4.93;3.50;;;;;;;;;;5073090;28;20203;-74
2023/07/05 04:12:05;;;;;;;4.78;3.72;;;;;;;;;;5075103;28;20260;-75
2023/07/05 04:14:33;;;;;;;3.30;3.00;;;;;;;;;;5076927;28;20202;-72
2023/07/05 04:17:00;;;;;;;3.47;3.10;;;;;;;;;;5076564;28;20205;-73
2023/07/05 04:19:27;;;;;;;3.60;3.30;;;;;;;;;;5069072;28;20270;-73
2023/07/05 04:21:54;;;;;;;4.13;3.60;;;;;;;;;;5075591;28;20205;-74
2023/07/05 04:24:21;;;;;;;3.92;3.42;;;;;;;;;;5069165;28;20225;-74
2023/07/05 04:26:50;;;;;;;4.38;3.65;;;;;;;;;;5070734;28;20203;-72
2023/07/05 04:29:17;;;;;;;4.90;3.60;;;;;;;;;;5067420;28;20209;-74
2023/07/05 04:31:44;;;;;;;3.60;3.30;;;;;;;;;;5076147;28;20202;-75
2023/07/05 04:34:11;;;;;;;3.92;3.53;;;;;;;;;;5073229;28;20202;-76
2023/07/05 04:36:38;;;;;;;6.70;3.25;;;;;;;;;;5073828;28;20240;-75
2023/07/05 04:39:05;;;;;;;4.97;3.40;;;;;;;;;;5073348;28;20213;-75
2023/07/05 04:41:33;;;;;;;4.35;3.28;;;;;;;;;;5072953;28;20222;-75
2023/07/05 04:44:04;;;;;;;3.60;3.30;;;;;;;;;;5070595;28;20229;-75
2023/07/05 04:46:31;;;;;;;4.45;3.70;;;;;;;;;;5069222;28;20206;-75
2023/07/05 04:48:58;;;;;;;4.65;3.58;;;;;;;;;;5077436;28;20301;-74
2023/07/05 04:51:26;;;;;;;5.22;3.80;;;;;;;;;;5067359;28;20211;-74
2023/07/05 04:53:53;;;;;;;3.92;3.40;;;;;;;;;;5067150;28;20212;-75
2023/07/05 04:56:20;;;;;;;3.97;3.43;;;;;;;;;;5066077;28;20213;-74
2023/07/05 04:58:49;;;;;;;4.35;3.28;;;;;;;;;;5069358;28;20207;-75
2023/07/05 05:01:19;;;;;;;4.22;3.83;;;;;;;;;;5067214;28;20209;-76
2023/07/05 05:03:46;;;;;;;3.67;3.25;;;;;;;;;;5074325;28;20274;-74
2023/07/05 05:06:13;;;;;;;5.05;3.72;;;;;;;;;;5074525;28;20304;-73
2023/07/05 05:08:41;;;;;;;3.72;3.17;;;;;;;;;;5077065;28;20206;-77
2023/07/05 05:11:08;;;;;;;4.10;3.33;;;;;;;;;;5075847;28;20232;-76
2023/07/05 05:13:36;;;;;;;4.03;3.40;;;;;;;;;;5076041;28;20209;-76
2023/07/05 05:16:04;;;;;;;5.80;3.40;;;;;;;;;;5069065;28;20202;-76
2023/07/05 05:18:37;;;;;;;3.97;3.15;;;;;;;;;;5074031;28;20206;-75
2023/07/05 05:21:04;;;;;;;4.33;3.27;;;;;;;;;;5077203;28;20294;-75
2023/07/05 05:23:31;;;;;;;4.53;3.23;;;;;;;;;;5076161;28;20219;-77
2023/07/05 05:25:58;;;;;;;4.40;3.30;;;;;;;;;;5073891;28;20218;-75
2023/07/05 05:28:26;;;;;;;4.60;3.25;;;;;;;;;;5071006;28;20206;-80
2023/07/05 05:30:53;;;;;;;4.27;3.17;;;;;;;;;;5076393;28;20205;-76
2023/07/05 05:33:20;;;;;;;3.30;2.83;;;;;;;;;;5077499;28;20205;-74
2023/07/05 05:35:49;;;;;;;6.10;3.10;;;;;;;;;;5082330;28;20198;-82
2023/07/05 05:38:17;;;;;;;3.70;2.60;;;;;;;;;;5071989;28;20226;-78
2023/07/05 05:40:44;;;;;;;4.82;2.85;;;;;;;;;;5075167;28;20207;-81
2023/07/05 05:43:11;;;;;;;4.10;3.10;;;;;;;;;;5074096;28;20207;-78
2023/07/05 05:45:39;;;;;;;4.63;3.13;;;;;;;;;;5075211;28;20347;-77
2023/07/05 05:48:06;;;;;;;4.60;2.90;;;;;;;;;;5076732;28;20264;-77
2023/07/05 05:50:33;;;;;;;4.50;3.00;;;;;;;;;;5072690;28;20205;-76
2023/07/05 05:53:03;;;;;;;6.13;3.00;;;;;;;;;;5075306;28;20202;-75
2023/07/05 05:55:30;;;;;;;3.90;3.10;;;;;;;;;;5077672;28;20203;-74
2023/07/05 05:57:57;;;;;;;3.10;2.70;;;;;;;;;;5065610;28;20293;-76
2023/07/05 06:00:24;;;;;;;2.78;2.58;;;;;;;;;;5080665;28;20256;-75
2023/07/05 06:02:53;;;;;;;3.05;2.70;;;;;;;;;;5078502;28;20190;-77
2023/07/05 06:05:20;;;;;;;4.57;2.90;;;;;;;;;;5085645;28;20226;-79
2023/07/05 06:07:47;;;;;;;4.63;2.83;;;;;;;;;;5076687;28;20207;-75
2023/07/05 06:10:16;;;;;;;4.10;2.70;;;;;;;;;;5085911;28;20204;-76
2023/07/05 06:12:43;;;;;;;3.92;3.08;;;;;;;;;;5074747;28;20281;-74
2023/07/05 06:15:11;;;;;;;3.63;2.85;;;;;;;;;;5080076;28;20195;-73
2023/07/05 06:17:38;;;;;;;4.05;3.05;;;;;;;;;;5074432;28;20268;-79
2023/07/05 06:20:06;;;;;;;4.57;2.80;;;;;;;;;;5080876;28;20217;-75
2023/07/05 06:22:34;;;;;;;4.30;2.70;;;;;;;;;;5077472;28;20203;-74
2023/07/05 06:25:01;;;;;;;4.57;2.80;;;;;;;;;;5075789;28;20331;-74
2023/07/05 06:27:29;;;;;;;4.87;2.97;;;;;;;;;;5078343;28;20230;-74
2023/07/05 06:29:57;;;;;;;3.03;2.30;;;;;;;;;;5078640;28;20207;-74
2023/07/05 06:32:24;;;;;;;3.75;2.45;;;;;;;;;;5065164;28;20211;-76
2023/07/05 06:34:51;;;;;;;3.10;2.50;;;;;;;;;;5066161;28;20199;-72
2023/07/05 06:37:18;;;;;;;4.33;2.70;;;;;;;;;;5065683;28;20234;-74
2023/07/05 06:39:46;;;;;;;6.47;2.43;;;;;;;;;;5075614;28;20232;-77
2023/07/05 06:42:13;;;;;;;3.72;2.50;;;;;;;;;;5072190;28;20203;-73
2023/07/05 06:44:42;;;;;;;4.60;2.60;;;;;;;;;;5074021;28;20222;-75
2023/07/05 06:47:09;;;;;;;4.35;2.90;;;;;;;;;;5083470;28;20213;-73
2023/07/05 06:49:36;;;;;;;2.97;2.53;;;;;;;;;;5069650;28;20201;-73
2023/07/05 06:52:07;;;;;;;3.63;2.60;;;;;;;;;;5070040;28;20224;-74
2023/07/05 06:54:34;;;;;;;2.55;2.25;;;;;;;;;;5073030;28;20209;-72
2023/07/05 06:57:02;;;;;;;3.47;2.50;;;;;;;;;;5083628;28;20210;-73
2023/07/05 06:59:29;;;;;;;2.58;2.30;;;;;;;;;;5076708;28;20206;-71
2023/07/05 07:01:57;;;;;;;2.83;2.15;;;;;;;;;;5074710;28;20198;-72
2023/07/05 07:04:24;;;;;;;3.22;2.20;;;;;;;;;;5078992;28;20231;-73
2023/07/05 07:06:52;;;;;;;3.67;2.35;;;;;;;;;;5083135;28;20216;-72
2023/07/05 07:09:19;;;;;;;3.13;2.50;;;;;;;;;;5088876;28;20198;-70
2023/07/05 07:11:46;;;;;;;2.65;2.05;;;;;;;;;;5082727;28;20297;-73
2023/07/05 07:14:13;;;;;;;2.40;2.20;;;;;;;;;;5083630;28;20364;-71
2023/07/05 07:16:40;;;;;;;3.03;2.30;;;;;;;;;;5077521;28;20206;-73
2023/07/05 07:19:09;;;;;;;5.30;2.65;;;;;;;;;;5080568;28;20202;-72
2023/07/05 07:21:37;;;;;;;3.00;2.63;;;;;;;;;;5082975;28;20220;-71
2023/07/05 07:24:04;;;;;;;3.88;2.70;;;;;;;;;;5069301;28;20234;-73
2023/07/05 07:26:32;;;;;;;2.22;2.03;;;;;;;;;;5072946;28;20199;-73
2023/07/05 07:28:59;;;;;;;2.67;1.88;;;;;;;;;;5067787;28;20198;-73
2023/07/05 07:31:27;;;;;;;2.05;1.73;;;;;;;;;;5076977;28;20198;-74
2023/07/05 07:33:54;;;;;;;2.85;2.00;;;;;;;;;;5085190;28;20206;-72
2023/07/05 07:36:24;;;;;;;3.28;2.00;;;;;;;;;;5082291;28;20213;-73
2023/07/05 07:38:51;;;;;;;2.58;1.83;;;;;;;;;;5077221;28;20202;-71
2023/07/05 07:41:20;;;;;;;4.65;2.22;;;;;;;;;;5074835;28;20205;-69
2023/07/05 07:43:47;;;;;;;5.22;2.20;;;;;;;;;;5077012;28;20218;-70
2023/07/05 07:46:16;;;;;;;4.65;1.98;;;;;;;;;;5077782;28;20203;-71
2023/07/05 07:48:44;;;;;;;1.60;1.50;;;;;;;;;;5079837;28;20212;-70
2023/07/05 07:51:11;;;;;;;4.05;1.90;;;;;;;;;;5077506;28;20213;-71
2023/07/05 07:53:40;;;;;;;1.67;1.50;;;;;;;;;;5075688;28;20199;-71
2023/07/05 07:56:13;;;;;;;1.88;1.65;;;;;;;;;;5077205;28;20202;-74
2023/07/05 07:58:41;;;;;;;2.17;1.77;;;;;;;;;;5081756;28;20206;-73
2023/07/05 08:01:12;;;;;;;3.75;1.85;;;;;;;;;;5077394;28;20198;-73
2023/07/05 08:03:39;;;;;;;3.42;1.90;;;;;;;;;;5071300;28;20236;-73
2023/07/05 08:06:07;;;;;;;2.60;2.03;;;;;;;;;;5068952;28;20222;-71
2023/07/05 08:08:34;;;;;;;3.05;1.80;;;;;;;;;;5069544;28;20214;-72
2023/07/05 08:11:03;;;;;;;5.03;1.88;;;;;;;;;;5066329;28;20199;-72
2023/07/05 08:13:30;;;;;;;3.75;1.60;;;;;;;;;;5077840;28;20210;-72
2023/07/05 08:15:57;;;;;;;6.38;2.33;;;;;;;;;;5083266;28;20194;-72
2023/07/05 08:18:25;;;;;;;2.42;1.63;;;;;;;;;;5076052;28;20203;-70
2023/07/05 08:20:52;;;;;;;3.08;1.67;;;;;;;;;;5074164;28;20290;-71
2023/07/05 08:23:19;;;;;;;4.85;1.67;;;;;;;;;;5073014;28;20205;-72
2023/07/05 08:25:54;;;;;;;3.03;1.70;;;;;;;;;;5080565;28;20230;-72
2023/07/05 08:28:22;;;;;;;4.80;1.70;;;;;;;;;;5080712;28;20291;-73
2023/07/05 08:30:56;;;;;;;2.85;1.63;;;;;;;;;;5084566;28;20229;-70
2023/07/05 08:33:24;;;;;;;3.70;1.67;;;;;;;;;;5079236;28;20199;-75
2023/07/05 08:35:51;;;;;;;4.68;1.85;;;;;;;;;;5084363;28;20195;-73
2023/07/05 08:38:18;;;;;;;8.32;1.67;;;;;;;;;;5078975;28;20237;-72
2023/07/05 08:40:49;;;;;;;4.63;1.70;;;;;;;;;;5078554;28;20233;-75
2023/07/05 08:43:22;;;;;;;4.47;2.00;;;;;;;;;;5079183;28;20241;-72
2023/07/05 08:45:53;;;;;;;2.72;1.65;;;;;;;;;;5077217;28;20305;-72
2023/07/05 08:48:21;;;;;;;6.45;1.80;;;;;;;;;;5075598;28;20218;-72
2023/07/05 08:50:53;;;;;;;2.70;1.42;;;;;;;;;;5085009;28;20203;-73
2023/07/05 08:53:23;;;;;;;3.58;1.70;;;;;;;;;;5085712;28;20279;-75
2023/07/05 08:55:53;;;;;;;3.30;1.67;;;;;;;;;;5076577;28;20233;-73
2023/07/05 08:58:22;;;;;;;5.60;1.83;;;;;;;;;;5076632;28;20255;-72
2023/07/05 09:00:53;;;;;;;3.33;1.52;;;;;;;;;;5079664;28;20257;-71
2023/07/05 09:03:22;;;;;;;4.38;1.83;;;;;;;;;;5080503;28;20206;-71
2023/07/05 09:05:51;;;;;;;4.47;1.90;;;;;;;;;;5074345;28;20317;-71
2023/07/05 09:08:23;;;;;;;2.92;1.50;;;;;;;;;;5078546;28;20232;-70
2023/07/05 09:10:54;;;;;;;5.25;1.98;;;;;;;;;;5075569;28;20244;-73
2023/07/05 09:13:24;;;;;;;4.43;1.58;;;;;;;;;;5069368;28;20211;-73
2023/07/05 09:15:57;;;;;;;5.18;1.88;;;;;;;;;;5078389;28;20208;-72
2023/07/05 09:18:31;;;;;;;3.88;1.63;;;;;;;;;;5078348;28;20203;-72
2023/07/05 09:21:03;;;;;;;5.25;1.52;;;;;;;;;;5075849;28;20207;-74
2023/07/05 09:23:34;;;;;;;3.00;1.90;;;;;;;;;;5077127;28;20209;-72
2023/07/05 09:26:03;;;;;;;17.20;1.95;;;;;;;;;;5073686;28;20219;-72
2023/07/05 09:28:33;;;;;;;5.63;1.80;;;;;;;;;;5074794;28;20195;-71
2023/07/05 09:31:02;;;;;;;3.67;1.60;;;;;;;;;;5077590;28;20206;-74
2023/07/05 09:33:33;;;;;;;3.25;1.55;;;;;;;;;;5070014;28;20213;-74
2023/07/05 09:36:04;;;;;;;2.53;1.65;;;;;;;;;;5074251;28;20298;-72
2023/07/05 09:38:34;;;;;;;6.50;1.73;;;;;;;;;;5073480;28;20234;-72
2023/07/05 09:41:04;;;;;;;4.78;1.63;;;;;;;;;;5071245;28;20211;-75
2023/07/05 09:43:32;;;;;;;5.43;2.00;;;;;;;;;;5075332;28;20209;-72
2023/07/05 09:46:00;;;;;;;4.38;1.70;;;;;;;;;;5079888;28;20280;-74
2023/07/05 09:48:30;;;;;;;2.78;1.70;;;;;;;;;;5072633;28;20213;-72
2023/07/05 09:51:03;;;;;;;2.40;1.65;;;;;;;;;;5073509;28;20194;-74
2023/07/05 09:53:45;;;;;;;3.92;1.73;;;;;;;;;;5069158;28;20275;-71
2023/07/05 09:56:14;;;;;;;2.63;1.70;;;;;;;;;;5069111;28;20209;-69
2023/07/05 09:58:43;;;;;;;2.67;1.70;;;;;;;;;;5072602;28;20202;-72
2023/07/05 10:01:12;;;;;;;5.05;1.63;;;;;;;;;;5074919;28;20206;-72
2023/07/05 10:03:46;;;;;;;1.63;1.35;;;;;;;;;;5067090;28;20199;-74
2023/07/05 10:06:13;;;;;;;3.50;1.73;;;;;;;;;;5067556;28;20218;-74
2023/07/05 10:08:44;;;;;;;4.15;1.77;;;;;;;;;;5068640;28;20310;-74
2023/07/05 10:11:33;;;;;;;2.05;1.60;;;;;;;;;;5070712;28;20230;-73
2023/07/05 10:14:05;;;;;;;4.07;1.77;;;;;;;;;;5069411;28;20203;-74
2023/07/05 10:16:46;;;;;;;4.47;1.52;;;;;;;;;;5075476;28;20202;-75
2023/07/05 10:19:24;;;;;;;3.50;1.70;;;;;;;;;;5068710;28;20201;-78
2023/07/05 10:21:54;;;;;;;2.70;1.88;;;;;;;;;;5072948;28;20202;-73
2023/07/05 10:24:22;;;;;;;4.50;1.58;;;;;;;;;;5074778;28;20217;-75
2023/07/05 10:26:49;;;;;;;3.25;1.90;;;;;;;;;;5061718;28;20236;-73
2023/07/05 10:29:20;;;;;;;4.15;1.98;;;;;;;;;;5073098;28;20202;-79
2023/07/05 10:31:52;;;;;;;3.88;1.65;;;;;;;;;;5073543;28;20203;-76
2023/07/05 10:34:22;;;;;;;3.40;1.60;;;;;;;;;;5073367;28;20293;-74
2023/07/05 10:36:51;;;;;;;7.07;1.60;;;;;;;;;;5073570;28;20230;-74
2023/07/05 10:39:22;;;;;;;2.75;1.83;;;;;;;;;;5078092;28;20198;-76
2023/07/05 10:41:50;;;;;;;3.47;1.88;;;;;;;;;;5075219;28;20296;-74
2023/07/05 10:44:20;;;;;;;4.65;2.47;;;;;;;;;;5078256;28;20218;-77
2023/07/05 10:46:49;;;;;;;4.05;1.60;;;;;;;;;;5076612;28;20222;-79
2023/07/05 10:49:17;;;;;;;3.80;1.75;;;;;;;;;;5075635;28;20234;-76
2023/07/05 10:51:47;;;;;;;3.85;1.50;;;;;;;;;;5079819;28;20207;-73
2023/07/05 10:54:19;;;;;;;4.00;1.80;;;;;;;;;;5076775;28;20208;-68
2023/07/05 10:56:47;;;;;;;2.63;1.50;;;;;;;;;;5073629;28;20202;-70
2023/07/05 10:59:16;;;;;;;5.43;1.90;;;;;;;;;;5075594;28;20341;-70
2023/07/05 11:01:47;;;;;;;5.80;1.80;;;;;;;;;;5072022;28;20202;-65
2023/07/05 11:04:18;;;;;;;4.03;1.70;;;;;;;;;;5076305;28;20205;-71
2023/07/05 11:06:47;;;;;;;3.70;1.52;;;;;;;;;;5075650;28;20231;-67
2023/07/05 11:09:14;;;;;;;3.83;1.70;;;;;;;;;;5081027;28;20205;-71
2023/07/05 11:11:44;;;;;;;3.03;1.52;;;;;;;;;;5079633;28;20225;-68
2023/07/05 11:14:13;;;;;;;2.92;1.60;;;;;;;;;;5074923;28;20226;-67
2023/07/05 11:16:42;;;;;;;3.85;2.30;;;;;;;;;;5076070;28;20206;-70
2023/07/05 11:19:13;;;;;;;2.05;1.50;;;;;;;;;;5073102;28;20207;-68
2023/07/05 11:21:44;;;;;;;3.53;1.92;;;;;;;;;;5073224;28;20245;-68
2023/07/05 11:24:11;;;;;;;2.58;1.58;;;;;;;;;;5076396;28;20209;-68
2023/07/05 11:26:39;;;;;;;3.63;1.42;;;;;;;;;;5074462;28;20218;-72
2023/07/05 11:29:25;;;;;;;4.72;1.77;;;;;;;;;;5074650;28;20241;-74
2023/07/05 11:32:01;;;;;;;4.47;1.40;;;;;;;;;;5076887;28;20206;-71
2023/07/05 11:34:48;;;;;;;3.92;1.80;;;;;;;;;;5070942;28;20209;-71
2023/07/05 11:37:40;;;;;;;6.25;1.90;;;;;;;;;;5078023;28;20236;-69
2023/07/05 11:40:27;;;;;;;3.55;1.73;;;;;;;;;;5070886;28;20211;-74
2023/07/05 11:42:56;;;;;;;4.13;1.77;;;;;;;;;;5081675;28;20209;-70
2023/07/05 11:45:23;;;;;;;1.77;1.50;;;;;;;;;;5070267;28;20214;-69
2023/07/05 11:47:51;;;;;;;3.20;1.85;;;;;;;;;;5068421;28;20209;-69
2023/07/05 11:50:22;;;;;;;3.25;1.77;;;;;;;;;;5075402;28;20218;-72
2023/07/05 11:52:55;;;;;;;2.83;1.65;;;;;;;;;;5075795;28;20202;-71
2023/07/05 11:55:24;;;;;;;3.90;1.75;;;;;;;;;;5077209;28;20226;-69
2023/07/05 11:57:54;;;;;;;4.45;2.10;;;;;;;;;;5069545;28;20272;-68
2023/07/05 12:00:29;;;;;;;3.50;1.90;;;;;;;;;;5075005;28;20211;-72
2023/07/05 12:02:59;;;;;;;4.22;2.30;;;;;;;;;;5074879;28;20194;-70
2023/07/05 12:05:27;;;;;;;3.83;1.90;;;;;;;;;;5068490;28;20267;-66
2023/07/05 12:07:58;;;;;;;3.20;1.98;;;;;;;;;;5068492;28;20199;-67
2023/07/05 12:10:28;;;;;;;4.32;1.70;;;;;;;;;;5068911;28;20207;-68
2023/07/05 12:12:55;;;;;;;4.60;1.85;;;;;;;;;;5077186;28;20194;-68
2023/07/05 12:15:24;;;;;;;4.80;1.88;;;;;;;;;;5074449;28;20195;-68
2023/07/05 12:17:52;;;;;;;4.47;2.10;;;;;;;;;;5074411;28;20205;-70
2023/07/05 12:20:29;;;;;;;3.67;1.85;;;;;;;;;;5072300;28;20198;-68
2023/07/05 12:22:56;;;;;;;6.15;1.90;;;;;;;;;;5070416;28;20293;-67
2023/07/05 12:25:24;;;;;;;2.60;1.80;;;;;;;;;;5071784;28;20198;-67
2023/07/05 12:27:52;;;;;;;3.00;1.80;;;;;;;;;;5075754;28;20210;-66
2023/07/05 12:30:21;;;;;;;4.13;1.73;;;;;;;;;;5079183;28;20224;-69
2023/07/05 12:32:51;;;;;;;3.38;1.88;;;;;;;;;;5077011;28;20234;-66
2023/07/05 12:35:20;;;;;;;3.25;1.70;;;;;;;;;;5075138;28;20202;-71
2023/07/05 12:37:48;;;;;;;5.43;1.83;;;;;;;;;;5073472;28;20226;-67
2023/07/05 12:40:20;;;;;;;3.15;1.98;;;;;;;;;;5072849;28;20203;-65
2023/07/05 12:42:49;;;;;;;3.15;1.90;;;;;;;;;;5078615;28;20198;-69
2023/07/05 12:45:17;;;;;;;3.30;1.55;;;;;;;;;;5074109;28;20207;-71
2023/07/05 12:47:45;;;;;;;4.50;1.58;;;;;;;;;;5077250;28;20241;-71
2023/07/05 12:50:15;;;;;;;5.35;1.75;;;;;;;;;;5075702;28;20234;-68
2023/07/05 12:52:42;;;;;;;3.75;1.58;;;;;;;;;;5078431;28;20234;-70
2023/07/05 12:55:25;;;;;;;1.80;1.65;;;;;;;;;;5079335;28;20209;-65
2023/07/05 12:57:54;;;;;;;4.38;2.10;;;;;;;;;;5068719;28;20214;-66
2023/07/05 13:00:21;;;;;;;3.38;1.98;;;;;;;;;;5071897;28;20226;-66
2023/07/05 13:02:48;;;;;;;6.88;1.92;;;;;;;;;;5076119;28;20207;-69
2023/07/05 13:05:17;;;;;;;4.47;2.00;;;;;;;;;;5077108;28;20201;-66
2023/07/05 13:07:44;;;;;;;3.20;1.80;;;;;;;;;;5073571;28;20228;-66
2023/07/05 13:10:12;;;;;;;4.85;1.67;;;;;;;;;;5069043;28;20207;-65
2023/07/05 13:12:47;;;;;;;3.28;1.80;;;;;;;;;;5078353;28;20207;-68
2023/07/05 13:15:14;;;;;;;3.38;1.90;;;;;;;;;;5068439;28;20207;-67
2023/07/05 13:17:42;;;;;;;3.92;1.88;;;;;;;;;;5074878;28;20190;-67
2023/07/05 13:20:13;;;;;;;4.70;1.80;;;;;;;;;;5078173;28;20213;-65
2023/07/05 13:22:46;;;;;;;2.78;1.80;;;;;;;;;;5077630;28;20198;-71
2023/07/05 13:25:27;;;;;;;5.50;2.15;;;;;;;;;;5074829;28;20258;-66
2023/07/05 13:27:54;;;;;;;2.58;1.70;;;;;;;;;;5079390;28;20225;-66
2023/07/05 13:30:22;;;;;;;3.03;1.80;;;;;;;;;;5081290;28;20202;-65
2023/07/05 13:32:51;;;;;;;4.22;1.67;;;;;;;;;;5079887;28;20202;-66
2023/07/05 13:35:19;;;;;;;3.13;1.85;;;;;;;;;;5079710;28;20217;-66
2023/07/05 13:37:47;;;;;;;2.47;1.80;;;;;;;;;;5078004;28;20273;-67
2023/07/05 13:40:19;;;;;;;3.92;1.77;;;;;;;;;;5081756;28;20230;-66
2023/07/05 13:42:47;;;;;;;2.35;1.80;;;;;;;;;;5070788;28;20203;-65
2023/07/05 13:45:15;;;;;;;2.85;1.83;;;;;;;;;;5071165;28;20252;-65
2023/07/05 13:47:43;;;;;;;3.67;1.92;;;;;;;;;;5074275;28;20222;-66
2023/07/05 13:50:12;;;;;;;2.95;1.77;;;;;;;;;;5077623;28;20202;-65
2023/07/05 13:52:39;;;;;;;7.95;2.20;;;;;;;;;;5074483;28;20208;-66
2023/07/05 13:55:15;;;;;;;4.93;2.17;;;;;;;;;;5080732;28;20951;-66
2023/07/05 13:57:52;;;;;;;3.92;2.22;;;;;;;;;;5084830;28;20207;-65
2023/07/05 14:00:19;;;;;;;7.13;2.05;;;;;;;;;;5080563;28;20204;-67
2023/07/05 14:02:47;;;;;;;5.78;1.98;;;;;;;;;;5082036;28;20210;-64
2023/07/05 14:05:14;;;;;;;3.35;1.73;;;;;;;;;;5083482;28;20213;-68
2023/07/05 14:07:41;;;;;;;3.22;2.20;;;;;;;;;;5077955;28;20226;-66
2023/07/05 14:10:13;;;;;;;5.10;2.30;;;;;;;;;;5081500;28;20213;-67
2023/07/05 14:12:40;;;;;;;6.72;2.30;;;;;;;;;;5073172;28;20211;-67
2023/07/05 14:15:19;;;;;;;4.10;2.08;;;;;;;;;;5073725;28;20203;-66
2023/07/05 14:17:46;;;;;;;4.25;2.15;;;;;;;;;;5075150;28;20205;-69
2023/07/05 14:20:14;;;;;;;5.38;2.10;;;;;;;;;;5073334;28;20201;-66
2023/07/05 14:22:41;;;;;;;4.50;1.77;;;;;;;;;;5075380;28;20211;-67
2023/07/05 14:25:16;;;;;;;2.50;1.80;;;;;;;;;;5080647;28;20202;-66
2023/07/05 14:27:43;;;;;;;2.83;1.92;;;;;;;;;;5084813;28;20233;-67
2023/07/05 14:30:10;;;;;;;6.28;2.03;;;;;;;;;;5085226;28;20210;-65
2023/07/05 14:32:37;;;;;;;2.58;1.80;;;;;;;;;;5090786;28;20216;-68
2023/07/05 14:35:11;;;;;;;2.72;2.10;;;;;;;;;;5080192;28;20216;-67
2023/07/05 14:37:38;;;;;;;3.30;1.90;;;;;;;;;;5086710;28;20241;-69
2023/07/05 14:40:06;;;;;;;4.72;1.85;;;;;;;;;;5081299;28;20207;-66
2023/07/05 14:42:34;;;;;;;2.58;2.00;;;;;;;;;;5081239;28;20206;-68
2023/07/05 14:45:01;;;;;;;6.00;2.15;;;;;;;;;;5082434;28;20221;-66
2023/07/05 14:47:29;;;;;;;4.30;1.95;;;;;;;;;;5082422;28;20236;-65
2023/07/05 14:49:56;;;;;;;3.53;2.05;;;;;;;;;;5085313;28;20222;-66
2023/07/05 14:52:23;;;;;;;3.58;2.00;;;;;;;;;;5077978;28;20206;-65
2023/07/05 14:54:50;;;;;;;2.78;1.77;;;;;;;;;;5077080;28;20210;-65